sensor_id;sensor_type;location;lat;lon;timestamp;pressure;altitude;pressure_sealevel;temperature
69704;BMP280;56967;43.538;-5.646;2023-03-12T00:00:40;95880.16;;;19.29
69704;BMP280;56967;43.538;-5.646;2023-03-12T00:03:08;96186.53;;;19.38
69704;BMP280;56967;43.538;-5.646;2023-03-12T00:05:38;96286.91;;;19.27
69704;BMP280;56967;43.538;-5.646;2023-03-12T00:08:04;96362.59;;;19.33
69704;BMP280;56967;43.538;-5.646;2023-03-12T00:10:33;96382.69;;;19.13
69704;BMP280;56967;43.538;-5.646;2023-03-12T00:12:59;96408.53;;;19.09
69704;BMP280;56967;43.538;-5.646;2023-03-12T00:15:25;96123.13;;;18.95
69704;BMP280;56967;43.538;-5.646;2023-03-12T00:17:53;96365.19;;;18.98
69704;BMP280;56967;43.538;-5.646;2023-03-12T00:20:19;96353.03;;;19.01
69704;BMP280;56967;43.538;-5.646;2023-03-12T00:22:46;96430.94;;;18.98
69704;BMP280;56967;43.538;-5.646;2023-03-12T00:25:16;96385.31;;;18.92
69704;BMP280;56967;43.538;-5.646;2023-03-12T00:27:45;96424.47;;;18.99
69704;BMP280;56967;43.538;-5.646;2023-03-12T00:30:11;96399.03;;;19.05
69704;BMP280;56967;43.538;-5.646;2023-03-12T00:32:37;96510.72;;;18.98
69704;BMP280;56967;43.538;-5.646;2023-03-12T00:35:04;96605.72;;;18.94
69704;BMP280;56967;43.538;-5.646;2023-03-12T00:37:30;96637.94;;;18.82
69704;BMP280;56967;43.538;-5.646;2023-03-12T00:39:57;96542.94;;;18.79
69704;BMP280;56967;43.538;-5.646;2023-03-12T00:42:23;96397.81;;;18.77
69704;BMP280;56967;43.538;-5.646;2023-03-12T00:44:48;96340.03;;;18.71
69704;BMP280;56967;43.538;-5.646;2023-03-12T00:47:14;96028.94;;;18.78
69704;BMP280;56967;43.538;-5.646;2023-03-12T00:49:39;95927.47;;;18.94
69704;BMP280;56967;43.538;-5.646;2023-03-12T00:52:05;96078.25;;;19.14
69704;BMP280;56967;43.538;-5.646;2023-03-12T00:54:31;96199.13;;;18.96
69704;BMP280;56967;43.538;-5.646;2023-03-12T00:56:56;96316.94;;;18.96
69704;BMP280;56967;43.538;-5.646;2023-03-12T00:59:22;96255.75;;;19.03
69704;BMP280;56967;43.538;-5.646;2023-03-12T01:01:48;96331.75;;;19.04
69704;BMP280;56967;43.538;-5.646;2023-03-12T01:04:14;96393.25;;;18.78
69704;BMP280;56967;43.538;-5.646;2023-03-12T01:06:39;96329.78;;;18.69
69704;BMP280;56967;43.538;-5.646;2023-03-12T01:09:06;96202.56;;;18.61
69704;BMP280;56967;43.538;-5.646;2023-03-12T01:11:32;96068.13;;;18.56
69704;BMP280;56967;43.538;-5.646;2023-03-12T01:13:59;95962.16;;;18.55
69704;BMP280;56967;43.538;-5.646;2023-03-12T01:16:28;95936.78;;;18.29
69704;BMP280;56967;43.538;-5.646;2023-03-12T01:18:56;95644.13;;;18.34
69704;BMP280;56967;43.538;-5.646;2023-03-12T01:21:21;95456.09;;;18.15
69704;BMP280;56967;43.538;-5.646;2023-03-12T01:23:47;95260.16;;;18.26
69704;BMP280;56967;43.538;-5.646;2023-03-12T01:26:13;95254.06;;;18.29
69704;BMP280;56967;43.538;-5.646;2023-03-12T01:28:38;95438.88;;;18.27
69704;BMP280;56967;43.538;-5.646;2023-03-12T01:31:08;95543.38;;;18.10
69704;BMP280;56967;43.538;-5.646;2023-03-12T01:33:34;95297.72;;;18.28
69704;BMP280;56967;43.538;-5.646;2023-03-12T01:36:00;95218.81;;;18.29
69704;BMP280;56967;43.538;-5.646;2023-03-12T01:38:25;95089.50;;;18.22
69704;BMP280;56967;43.538;-5.646;2023-03-12T01:40:51;95125.00;;;18.32
69704;BMP280;56967;43.538;-5.646;2023-03-12T01:48:17;95549.63;;;18.37
69704;BMP280;56967;43.538;-5.646;2023-03-12T01:50:43;95654.75;;;18.34
69704;BMP280;56967;43.538;-5.646;2023-03-12T01:53:10;95793.75;;;18.24
69704;BMP280;56967;43.538;-5.646;2023-03-12T01:55:35;95441.03;;;18.01
69704;BMP280;56967;43.538;-5.646;2023-03-12T01:58:01;95173.22;;;18.03
69704;BMP280;56967;43.538;-5.646;2023-03-12T02:00:27;95089.75;;;18.04
69704;BMP280;56967;43.538;-5.646;2023-03-12T02:02:57;95117.66;;;18.16
69704;BMP280;56967;43.538;-5.646;2023-03-12T02:07:55;95144.47;;;18.25
69704;BMP280;56967;43.538;-5.646;2023-03-12T02:10:22;95245.69;;;18.31
69704;BMP280;56967;43.538;-5.646;2023-03-12T02:12:48;95585.38;;;18.25
69704;BMP280;56967;43.538;-5.646;2023-03-12T02:15:13;95708.72;;;18.21
69704;BMP280;56967;43.538;-5.646;2023-03-12T02:17:39;95604.34;;;18.27
69704;BMP280;56967;43.538;-5.646;2023-03-12T02:22:36;95722.34;;;18.30
69704;BMP280;56967;43.538;-5.646;2023-03-12T02:25:27;95556.97;;;18.19
69704;BMP280;56967;43.538;-5.646;2023-03-12T02:27:56;95301.75;;;18.10
69704;BMP280;56967;43.538;-5.646;2023-03-12T02:30:23;95067.78;;;18.04
69704;BMP280;56967;43.538;-5.646;2023-03-12T02:32:49;94857.34;;;18.00
69704;BMP280;56967;43.538;-5.646;2023-03-12T02:35:15;94851.00;;;17.94
69704;BMP280;56967;43.538;-5.646;2023-03-12T02:37:54;94562.56;;;17.91
69704;BMP280;56967;43.538;-5.646;2023-03-12T02:40:41;94478.19;;;17.98
69704;BMP280;56967;43.538;-5.646;2023-03-12T02:43:09;94699.84;;;18.07
69704;BMP280;56967;43.538;-5.646;2023-03-12T02:45:36;94872.56;;;18.19
69704;BMP280;56967;43.538;-5.646;2023-03-12T02:48:05;95096.47;;;18.13
69704;BMP280;56967;43.538;-5.646;2023-03-12T02:50:33;95382.19;;;18.03
69704;BMP280;56967;43.538;-5.646;2023-03-12T02:52:58;95486.13;;;18.05
69704;BMP280;56967;43.538;-5.646;2023-03-12T02:55:24;95426.69;;;17.88
69704;BMP280;56967;43.538;-5.646;2023-03-12T02:57:49;95225.78;;;17.85
69704;BMP280;56967;43.538;-5.646;2023-03-12T03:00:15;95201.81;;;17.89
69704;BMP280;56967;43.538;-5.646;2023-03-12T03:02:42;95209.31;;;17.97
69704;BMP280;56967;43.538;-5.646;2023-03-12T03:05:09;95281.28;;;18.07
69704;BMP280;56967;43.538;-5.646;2023-03-12T03:07:35;95362.00;;;18.13
69704;BMP280;56967;43.538;-5.646;2023-03-12T03:10:00;95558.22;;;18.03
69704;BMP280;56967;43.538;-5.646;2023-03-12T03:12:33;95630.28;;;18.02
69704;BMP280;56967;43.538;-5.646;2023-03-12T03:14:58;95622.31;;;18.02
69704;BMP280;56967;43.538;-5.646;2023-03-12T03:17:25;95528.22;;;18.03
69704;BMP280;56967;43.538;-5.646;2023-03-12T03:19:51;95595.78;;;17.98
69704;BMP280;56967;43.538;-5.646;2023-03-12T03:22:17;95707.31;;;17.98
69704;BMP280;56967;43.538;-5.646;2023-03-12T03:24:43;95846.53;;;18.01
69704;BMP280;56967;43.538;-5.646;2023-03-12T03:27:08;95893.94;;;17.99
69704;BMP280;56967;43.538;-5.646;2023-03-12T03:29:34;96028.63;;;18.23
69704;BMP280;56967;43.538;-5.646;2023-03-12T03:32:00;96148.19;;;18.34
69704;BMP280;56967;43.538;-5.646;2023-03-12T03:34:25;96370.78;;;18.61
69704;BMP280;56967;43.538;-5.646;2023-03-12T03:36:51;96751.53;;;18.44
69704;BMP280;56967;43.538;-5.646;2023-03-12T03:39:16;96819.97;;;18.47
69704;BMP280;56967;43.538;-5.646;2023-03-12T03:41:42;96989.16;;;18.36
69704;BMP280;56967;43.538;-5.646;2023-03-12T03:44:08;96880.66;;;18.42
69704;BMP280;56967;43.538;-5.646;2023-03-12T03:46:34;96917.59;;;18.50
69704;BMP280;56967;43.538;-5.646;2023-03-12T03:49:00;96893.19;;;18.45
69704;BMP280;56967;43.538;-5.646;2023-03-12T03:51:26;96780.94;;;18.58
69704;BMP280;56967;43.538;-5.646;2023-03-12T03:53:52;96813.09;;;18.46
69704;BMP280;56967;43.538;-5.646;2023-03-12T03:56:17;96970.78;;;18.54
69704;BMP280;56967;43.538;-5.646;2023-03-12T03:58:43;97216.94;;;18.32
69704;BMP280;56967;43.538;-5.646;2023-03-12T04:01:11;97095.84;;;18.35
69704;BMP280;56967;43.538;-5.646;2023-03-12T04:03:37;97212.91;;;18.19
69704;BMP280;56967;43.538;-5.646;2023-03-12T04:06:04;97090.84;;;17.88
69704;BMP280;56967;43.538;-5.646;2023-03-12T04:08:30;96664.59;;;17.75
69704;BMP280;56967;43.538;-5.646;2023-03-12T04:10:57;96278.78;;;17.64
69704;BMP280;56967;43.538;-5.646;2023-03-12T04:13:22;95866.66;;;17.70
69704;BMP280;56967;43.538;-5.646;2023-03-12T04:15:50;95469.03;;;17.58
69704;BMP280;56967;43.538;-5.646;2023-03-12T04:18:16;95232.75;;;17.72
69704;BMP280;56967;43.538;-5.646;2023-03-12T04:20:42;95032.34;;;17.61
69704;BMP280;56967;43.538;-5.646;2023-03-12T04:23:08;94755.84;;;17.53
69704;BMP280;56967;43.538;-5.646;2023-03-12T04:25:34;94437.59;;;17.53
69704;BMP280;56967;43.538;-5.646;2023-03-12T04:28:00;94274.78;;;17.63
69704;BMP280;56967;43.538;-5.646;2023-03-12T04:30:26;94121.91;;;17.69
69704;BMP280;56967;43.538;-5.646;2023-03-12T04:32:52;94007.06;;;17.94
69704;BMP280;56967;43.538;-5.646;2023-03-12T04:35:18;94327.63;;;17.86
69704;BMP280;56967;43.538;-5.646;2023-03-12T04:37:44;94715.16;;;17.99
69704;BMP280;56967;43.538;-5.646;2023-03-12T04:40:11;94851.44;;;18.32
69704;BMP280;56967;43.538;-5.646;2023-03-12T04:42:38;95236.38;;;18.19
69704;BMP280;56967;43.538;-5.646;2023-03-12T04:45:04;95275.78;;;18.24
69704;BMP280;56967;43.538;-5.646;2023-03-12T04:47:33;95572.31;;;18.45
69704;BMP280;56967;43.538;-5.646;2023-03-12T04:49:58;95529.75;;;18.52
69704;BMP280;56967;43.538;-5.646;2023-03-12T04:52:24;95751.44;;;18.54
69704;BMP280;56967;43.538;-5.646;2023-03-12T04:54:51;95811.31;;;18.73
69704;BMP280;56967;43.538;-5.646;2023-03-12T04:57:17;96125.81;;;18.81
69704;BMP280;56967;43.538;-5.646;2023-03-12T04:59:43;96766.06;;;18.54
69704;BMP280;56967;43.538;-5.646;2023-03-12T05:02:09;96952.56;;;18.52
69704;BMP280;56967;43.538;-5.646;2023-03-12T05:04:34;97109.00;;;18.28
69704;BMP280;56967;43.538;-5.646;2023-03-12T05:07:00;97010.38;;;18.59
69704;BMP280;56967;43.538;-5.646;2023-03-12T05:09:26;97054.41;;;18.83
69704;BMP280;56967;43.538;-5.646;2023-03-12T05:11:51;97164.56;;;19.04
69704;BMP280;56967;43.538;-5.646;2023-03-12T05:14:17;97346.50;;;19.15
69704;BMP280;56967;43.538;-5.646;2023-03-12T05:16:42;97439.94;;;19.10
69704;BMP280;56967;43.538;-5.646;2023-03-12T05:19:08;97518.03;;;19.18
69704;BMP280;56967;43.538;-5.646;2023-03-12T05:21:34;97448.63;;;19.07
69704;BMP280;56967;43.538;-5.646;2023-03-12T05:23:59;97672.47;;;19.02
69704;BMP280;56967;43.538;-5.646;2023-03-12T05:26:30;97785.28;;;19.13
69704;BMP280;56967;43.538;-5.646;2023-03-12T05:28:57;98018.28;;;18.95
69704;BMP280;56967;43.538;-5.646;2023-03-12T05:31:23;97986.41;;;18.59
69704;BMP280;56967;43.538;-5.646;2023-03-12T05:33:49;97744.41;;;18.74
69704;BMP280;56967;43.538;-5.646;2023-03-12T05:36:15;97779.34;;;18.45
69704;BMP280;56967;43.538;-5.646;2023-03-12T05:38:41;97542.41;;;18.03
69704;BMP280;56967;43.538;-5.646;2023-03-12T05:41:09;97289.19;;;18.19
69704;BMP280;56967;43.538;-5.646;2023-03-12T05:43:34;97352.59;;;18.20
69704;BMP280;56967;43.538;-5.646;2023-03-12T05:46:02;97429.97;;;18.15
69704;BMP280;56967;43.538;-5.646;2023-03-12T05:48:28;97410.66;;;18.18
69704;BMP280;56967;43.538;-5.646;2023-03-12T05:50:54;97505.38;;;18.26
69704;BMP280;56967;43.538;-5.646;2023-03-12T05:53:20;97549.28;;;18.36
69704;BMP280;56967;43.538;-5.646;2023-03-12T05:55:45;97544.13;;;18.58
69704;BMP280;56967;43.538;-5.646;2023-03-12T05:58:11;97511.81;;;18.41
69704;BMP280;56967;43.538;-5.646;2023-03-12T06:00:36;97474.06;;;18.51
69704;BMP280;56967;43.538;-5.646;2023-03-12T06:03:06;97461.97;;;18.53
69704;BMP280;56967;43.538;-5.646;2023-03-12T06:05:33;97563.22;;;18.80
69704;BMP280;56967;43.538;-5.646;2023-03-12T06:07:58;97530.47;;;18.95
69704;BMP280;56967;43.538;-5.646;2023-03-12T06:10:24;97892.00;;;18.93
69704;BMP280;56967;43.538;-5.646;2023-03-12T06:12:50;98008.19;;;18.89
69704;BMP280;56967;43.538;-5.646;2023-03-12T06:15:16;98174.41;;;18.67
69704;BMP280;56967;43.538;-5.646;2023-03-12T06:17:41;98108.56;;;18.76
69704;BMP280;56967;43.538;-5.646;2023-03-12T06:20:07;98108.78;;;18.83
69704;BMP280;56967;43.538;-5.646;2023-03-12T06:22:33;97580.50;;;18.54
69704;BMP280;56967;43.538;-5.646;2023-03-12T06:24:59;97472.19;;;18.70
69704;BMP280;56967;43.538;-5.646;2023-03-12T06:27:24;97875.56;;;18.91
69704;BMP280;56967;43.538;-5.646;2023-03-12T06:29:50;97979.72;;;18.89
69704;BMP280;56967;43.538;-5.646;2023-03-12T06:32:16;98029.94;;;18.91
69704;BMP280;56967;43.538;-5.646;2023-03-12T06:34:42;98116.66;;;18.80
69704;BMP280;56967;43.538;-5.646;2023-03-12T06:37:09;98125.81;;;18.46
69704;BMP280;56967;43.538;-5.646;2023-03-12T06:39:34;98028.19;;;18.70
69704;BMP280;56967;43.538;-5.646;2023-03-12T06:42:00;98129.88;;;18.88
69704;BMP280;56967;43.538;-5.646;2023-03-12T06:44:26;98194.94;;;18.34
69704;BMP280;56967;43.538;-5.646;2023-03-12T06:46:51;98119.22;;;18.52
69704;BMP280;56967;43.538;-5.646;2023-03-12T06:49:18;98002.75;;;17.88
69704;BMP280;56967;43.538;-5.646;2023-03-12T06:51:43;97546.38;;;18.10
69704;BMP280;56967;43.538;-5.646;2023-03-12T06:54:09;97108.72;;;17.53
69704;BMP280;56967;43.538;-5.646;2023-03-12T06:56:34;96420.56;;;17.56
69704;BMP280;56967;43.538;-5.646;2023-03-12T06:59:00;96166.16;;;17.61
69704;BMP280;56967;43.538;-5.646;2023-03-12T07:01:25;96358.22;;;18.55
69704;BMP280;56967;43.538;-5.646;2023-03-12T07:03:52;97077.75;;;19.22
69704;BMP280;56967;43.538;-5.646;2023-03-12T07:06:19;97500.84;;;19.54
69704;BMP280;56967;43.538;-5.646;2023-03-12T07:08:45;97977.28;;;19.39
69704;BMP280;56967;43.538;-5.646;2023-03-12T07:11:12;98308.03;;;19.41
69704;BMP280;56967;43.538;-5.646;2023-03-12T07:13:38;98331.34;;;19.20
69704;BMP280;56967;43.538;-5.646;2023-03-12T07:16:04;98353.22;;;19.38
69704;BMP280;56967;43.538;-5.646;2023-03-12T07:18:30;98171.09;;;18.94
69704;BMP280;56967;43.538;-5.646;2023-03-12T07:20:55;98250.66;;;19.32
69704;BMP280;56967;43.538;-5.646;2023-03-12T07:23:22;98430.94;;;19.76
69704;BMP280;56967;43.538;-5.646;2023-03-12T07:25:48;98636.00;;;19.81
69704;BMP280;56967;43.538;-5.646;2023-03-12T07:28:14;98545.97;;;19.13
69704;BMP280;56967;43.538;-5.646;2023-03-12T07:30:40;98373.44;;;19.51
69704;BMP280;56967;43.538;-5.646;2023-03-12T07:33:08;98453.06;;;20.25
69704;BMP280;56967;43.538;-5.646;2023-03-12T07:35:34;98781.38;;;20.41
69704;BMP280;56967;43.538;-5.646;2023-03-12T07:38:01;98982.09;;;20.17
69704;BMP280;56967;43.538;-5.646;2023-03-12T07:40:27;99016.22;;;20.11
69704;BMP280;56967;43.538;-5.646;2023-03-12T07:42:53;99077.72;;;20.73
69704;BMP280;56967;43.538;-5.646;2023-03-12T07:45:19;99302.72;;;20.45
69704;BMP280;56967;43.538;-5.646;2023-03-12T07:47:44;99249.63;;;20.52
69704;BMP280;56967;43.538;-5.646;2023-03-12T07:50:11;99155.91;;;21.12
69704;BMP280;56967;43.538;-5.646;2023-03-12T07:52:37;99404.28;;;20.48
69704;BMP280;56967;43.538;-5.646;2023-03-12T07:55:03;99324.47;;;20.81
69704;BMP280;56967;43.538;-5.646;2023-03-12T07:57:28;99473.25;;;20.63
69704;BMP280;56967;43.538;-5.646;2023-03-12T07:59:54;99408.53;;;20.92
69704;BMP280;56967;43.538;-5.646;2023-03-12T08:02:19;99463.31;;;21.24
69704;BMP280;56967;43.538;-5.646;2023-03-12T08:04:45;99635.03;;;21.21
69704;BMP280;56967;43.538;-5.646;2023-03-12T08:07:11;99634.88;;;21.43
69704;BMP280;56967;43.538;-5.646;2023-03-12T08:09:37;99721.53;;;21.42
69704;BMP280;56967;43.538;-5.646;2023-03-12T08:12:04;99763.06;;;21.56
69704;BMP280;56967;43.538;-5.646;2023-03-12T08:14:30;99792.16;;;21.49
69704;BMP280;56967;43.538;-5.646;2023-03-12T08:16:58;99753.91;;;21.49
69704;BMP280;56967;43.538;-5.646;2023-03-12T08:19:25;99597.72;;;20.42
69704;BMP280;56967;43.538;-5.646;2023-03-12T08:21:51;99519.13;;;20.65
69704;BMP280;56967;43.538;-5.646;2023-03-12T08:24:18;99589.59;;;21.21
69704;BMP280;56967;43.538;-5.646;2023-03-12T08:26:44;99716.16;;;21.25
69704;BMP280;56967;43.538;-5.646;2023-03-12T08:29:10;99761.84;;;21.71
69704;BMP280;56967;43.538;-5.646;2023-03-12T08:31:36;99888.34;;;21.63
69704;BMP280;56967;43.538;-5.646;2023-03-12T08:34:02;99919.59;;;22.10
69704;BMP280;56967;43.538;-5.646;2023-03-12T08:36:27;99990.38;;;22.43
69704;BMP280;56967;43.538;-5.646;2023-03-12T08:38:53;100051.88;;;22.09
69704;BMP280;56967;43.538;-5.646;2023-03-12T08:41:19;99854.22;;;21.77
69704;BMP280;56967;43.538;-5.646;2023-03-12T08:43:44;99936.44;;;22.11
69704;BMP280;56967;43.538;-5.646;2023-03-12T08:46:11;99984.16;;;22.09
69704;BMP280;56967;43.538;-5.646;2023-03-12T08:48:37;99984.03;;;22.22
69704;BMP280;56967;43.538;-5.646;2023-03-12T08:51:03;100051.34;;;22.46
69704;BMP280;56967;43.538;-5.646;2023-03-12T08:53:30;100091.09;;;22.62
69704;BMP280;56967;43.538;-5.646;2023-03-12T08:55:56;100173.25;;;22.66
69704;BMP280;56967;43.538;-5.646;2023-03-12T08:58:28;100165.34;;;22.00
69704;BMP280;56967;43.538;-5.646;2023-03-12T09:00:54;100134.00;;;22.31
69704;BMP280;56967;43.538;-5.646;2023-03-12T09:03:20;100134.66;;;21.97
69704;BMP280;56967;43.538;-5.646;2023-03-12T09:05:47;100000.88;;;22.06
69704;BMP280;56967;43.538;-5.646;2023-03-12T09:08:13;100036.34;;;22.28
69704;BMP280;56967;43.538;-5.646;2023-03-12T09:10:39;100084.81;;;22.18
69704;BMP280;56967;43.538;-5.646;2023-03-12T09:13:05;100115.09;;;22.67
69704;BMP280;56967;43.538;-5.646;2023-03-12T09:15:31;100133.25;;;23.12
69704;BMP280;56967;43.538;-5.646;2023-03-12T09:17:57;100264.09;;;23.58
69704;BMP280;56967;43.538;-5.646;2023-03-12T09:20:23;100399.91;;;23.85
69704;BMP280;56967;43.538;-5.646;2023-03-12T09:22:49;100462.69;;;24.57
69704;BMP280;56967;43.538;-5.646;2023-03-12T09:25:15;100589.38;;;24.90
69704;BMP280;56967;43.538;-5.646;2023-03-12T09:27:46;100593.63;;;24.91
69704;BMP280;56967;43.538;-5.646;2023-03-12T09:30:17;100619.56;;;25.21
69704;BMP280;56967;43.538;-5.646;2023-03-12T09:32:43;100680.44;;;25.60
69704;BMP280;56967;43.538;-5.646;2023-03-12T09:35:10;100691.72;;;26.17
69704;BMP280;56967;43.538;-5.646;2023-03-12T09:37:36;100732.22;;;26.29
69704;BMP280;56967;43.538;-5.646;2023-03-12T09:40:02;100793.28;;;26.33
69704;BMP280;56967;43.538;-5.646;2023-03-12T09:45:17;100868.31;;;25.46
69704;BMP280;56967;43.538;-5.646;2023-03-12T09:47:50;100896.00;;;25.29
69704;BMP280;56967;43.538;-5.646;2023-03-12T09:50:41;100896.78;;;24.90
69704;BMP280;56967;43.538;-5.646;2023-03-12T09:55:44;100928.59;;;24.88
69704;BMP280;56967;43.538;-5.646;2023-03-12T09:58:13;100904.41;;;24.97
69704;BMP280;56967;43.538;-5.646;2023-03-12T10:00:41;100928.75;;;24.92
69704;BMP280;56967;43.538;-5.646;2023-03-12T10:03:31;100945.38;;;24.85
69704;BMP280;56967;43.538;-5.646;2023-03-12T10:06:15;100963.81;;;25.09
69704;BMP280;56967;43.538;-5.646;2023-03-12T10:08:50;100978.97;;;24.52
69704;BMP280;56967;43.538;-5.646;2023-03-12T10:17:11;100982.41;;;24.30
69704;BMP280;56967;43.538;-5.646;2023-03-12T10:19:50;100917.94;;;23.81
69704;BMP280;56967;43.538;-5.646;2023-03-12T10:22:37;100838.78;;;23.02
69704;BMP280;56967;43.538;-5.646;2023-03-12T10:27:46;100649.22;;;22.76
69704;BMP280;56967;43.538;-5.646;2023-03-12T10:30:22;100632.72;;;22.96
69704;BMP280;56967;43.538;-5.646;2023-03-12T10:32:58;100627.34;;;22.96
69704;BMP280;56967;43.538;-5.646;2023-03-12T10:35:27;100629.84;;;22.79
69704;BMP280;56967;43.538;-5.646;2023-03-12T10:38:03;100561.16;;;22.20
69704;BMP280;56967;43.538;-5.646;2023-03-12T10:40:35;100412.13;;;21.88
69704;BMP280;56967;43.538;-5.646;2023-03-12T10:43:02;100360.81;;;21.72
69704;BMP280;56967;43.538;-5.646;2023-03-12T10:48:38;100258.97;;;21.55
69704;BMP280;56967;43.538;-5.646;2023-03-12T10:51:09;100256.09;;;21.52
69704;BMP280;56967;43.538;-5.646;2023-03-12T10:56:12;100230.59;;;21.32
69704;BMP280;56967;43.538;-5.646;2023-03-12T10:58:48;100192.03;;;20.97
69704;BMP280;56967;43.538;-5.646;2023-03-12T11:03:43;100186.16;;;21.23
69704;BMP280;56967;43.538;-5.646;2023-03-12T11:06:20;100196.78;;;21.50
69704;BMP280;56967;43.538;-5.646;2023-03-12T11:11:35;100255.25;;;21.43
69704;BMP280;56967;43.538;-5.646;2023-03-12T11:16:40;100247.47;;;21.19
69704;BMP280;56967;43.538;-5.646;2023-03-12T11:19:09;100240.41;;;21.23
69704;BMP280;56967;43.538;-5.646;2023-03-12T11:21:36;100287.44;;;21.24
69704;BMP280;56967;43.538;-5.646;2023-03-12T11:24:12;100286.63;;;21.51
69704;BMP280;56967;43.538;-5.646;2023-03-12T11:26:51;100293.81;;;21.64
69704;BMP280;56967;43.538;-5.646;2023-03-12T11:29:30;100345.41;;;21.92
69704;BMP280;56967;43.538;-5.646;2023-03-12T11:34:45;100431.25;;;21.68
69704;BMP280;56967;43.538;-5.646;2023-03-12T11:48:19;100317.44;;;21.35
69704;BMP280;56967;43.538;-5.646;2023-03-12T11:56:40;100369.00;;;21.76
69704;BMP280;56967;43.538;-5.646;2023-03-12T12:02:25;100444.72;;;21.76
69704;BMP280;56967;43.538;-5.646;2023-03-12T12:08:04;100432.09;;;22.18
69704;BMP280;56967;43.538;-5.646;2023-03-12T12:13:39;100571.34;;;22.58
69704;BMP280;56967;43.538;-5.646;2023-03-12T12:16:46;100597.28;;;22.85
69704;BMP280;56967;43.538;-5.646;2023-03-12T12:22:12;100634.03;;;23.20
69704;BMP280;56967;43.538;-5.646;2023-03-12T12:27:28;100710.81;;;23.52
69704;BMP280;56967;43.538;-5.646;2023-03-12T12:35:17;100876.41;;;23.79
69704;BMP280;56967;43.538;-5.646;2023-03-12T12:37:57;100905.53;;;24.21
69704;BMP280;56967;43.538;-5.646;2023-03-12T12:43:18;100993.13;;;24.08
69704;BMP280;56967;43.538;-5.646;2023-03-12T12:45:49;101037.75;;;23.50
69704;BMP280;56967;43.538;-5.646;2023-03-12T12:48:35;101026.47;;;23.67
69704;BMP280;56967;43.538;-5.646;2023-03-12T12:51:03;101071.81;;;23.95
69704;BMP280;56967;43.538;-5.646;2023-03-12T12:53:36;101058.44;;;23.50
69704;BMP280;56967;43.538;-5.646;2023-03-12T13:01:14;101073.56;;;23.27
69704;BMP280;56967;43.538;-5.646;2023-03-12T13:03:41;101042.94;;;23.14
69704;BMP280;56967;43.538;-5.646;2023-03-12T13:06:07;101077.31;;;23.12
69704;BMP280;56967;43.538;-5.646;2023-03-12T13:13:42;101023.63;;;22.99
69704;BMP280;56967;43.538;-5.646;2023-03-12T13:16:31;101017.41;;;22.85
69704;BMP280;56967;43.538;-5.646;2023-03-12T13:24:13;101031.22;;;22.36
69704;BMP280;56967;43.538;-5.646;2023-03-12T13:29:40;101007.28;;;22.02
69704;BMP280;56967;43.538;-5.646;2023-03-12T13:34:58;100962.88;;;21.72
69704;BMP280;56967;43.538;-5.646;2023-03-12T13:37:58;100924.31;;;21.78
69704;BMP280;56967;43.538;-5.646;2023-03-12T13:43:10;100906.97;;;21.71
69704;BMP280;56967;43.538;-5.646;2023-03-12T13:45:59;100889.31;;;21.51
69704;BMP280;56967;43.538;-5.646;2023-03-12T13:48:25;100892.47;;;21.30
69704;BMP280;56967;43.538;-5.646;2023-03-12T13:50:57;100910.25;;;21.16
69704;BMP280;56967;43.538;-5.646;2023-03-12T13:53:31;100887.34;;;21.33
69704;BMP280;56967;43.538;-5.646;2023-03-12T13:56:11;100869.25;;;21.25
69704;BMP280;56967;43.538;-5.646;2023-03-12T14:01:19;100890.84;;;21.57
69704;BMP280;56967;43.538;-5.646;2023-03-12T14:03:48;100900.69;;;21.62
69704;BMP280;56967;43.538;-5.646;2023-03-12T14:06:18;100892.34;;;21.16
69704;BMP280;56967;43.538;-5.646;2023-03-12T14:09:22;100864.03;;;21.39
69704;BMP280;56967;43.538;-5.646;2023-03-12T14:12:10;100837.34;;;21.34
69704;BMP280;56967;43.538;-5.646;2023-03-12T14:17:28;100826.41;;;21.30
69704;BMP280;56967;43.538;-5.646;2023-03-12T14:19:59;100815.66;;;21.35
69704;BMP280;56967;43.538;-5.646;2023-03-12T14:22:30;100824.44;;;21.36
69704;BMP280;56967;43.538;-5.646;2023-03-12T14:25:00;100820.88;;;21.45
69704;BMP280;56967;43.538;-5.646;2023-03-12T14:27:30;100827.34;;;20.92
69704;BMP280;56967;43.538;-5.646;2023-03-12T14:30:06;100789.69;;;21.12
69704;BMP280;56967;43.538;-5.646;2023-03-12T14:32:35;100788.19;;;21.06
69704;BMP280;56967;43.538;-5.646;2023-03-12T14:40:42;100783.75;;;21.20
69704;BMP280;56967;43.538;-5.646;2023-03-12T14:45:50;100760.78;;;21.19
69704;BMP280;56967;43.538;-5.646;2023-03-12T14:48:23;100753.78;;;21.23
69704;BMP280;56967;43.538;-5.646;2023-03-12T14:50:51;100779.41;;;21.24
69704;BMP280;56967;43.538;-5.646;2023-03-12T14:53:28;100787.00;;;21.12
69704;BMP280;56967;43.538;-5.646;2023-03-12T14:56:06;100779.59;;;21.09
69704;BMP280;56967;43.538;-5.646;2023-03-12T14:58:34;100751.81;;;21.29
69704;BMP280;56967;43.538;-5.646;2023-03-12T15:01:04;100747.25;;;21.11
69704;BMP280;56967;43.538;-5.646;2023-03-12T15:03:35;100758.38;;;20.94
69704;BMP280;56967;43.538;-5.646;2023-03-12T15:06:13;100701.91;;;21.00
69704;BMP280;56967;43.538;-5.646;2023-03-12T15:08:42;100713.22;;;20.92
69704;BMP280;56967;43.538;-5.646;2023-03-12T15:11:09;100716.22;;;20.86
69704;BMP280;56967;43.538;-5.646;2023-03-12T15:13:37;100667.91;;;20.82
69704;BMP280;56967;43.538;-5.646;2023-03-12T15:16:04;100650.06;;;20.78
69704;BMP280;56967;43.538;-5.646;2023-03-12T15:18:31;100620.47;;;20.93
69704;BMP280;56967;43.538;-5.646;2023-03-12T15:21:00;100630.03;;;20.99
69704;BMP280;56967;43.538;-5.646;2023-03-12T15:23:28;100642.38;;;20.71
69704;BMP280;56967;43.538;-5.646;2023-03-12T15:28:36;100601.06;;;20.64
69704;BMP280;56967;43.538;-5.646;2023-03-12T15:31:08;100590.13;;;20.65
69704;BMP280;56967;43.538;-5.646;2023-03-12T15:33:36;100582.56;;;20.49
69704;BMP280;56967;43.538;-5.646;2023-03-12T15:38:32;100542.59;;;20.20
69704;BMP280;56967;43.538;-5.646;2023-03-12T15:41:05;100525.28;;;20.12
69704;BMP280;56967;43.538;-5.646;2023-03-12T15:43:32;100491.75;;;20.06
69704;BMP280;56967;43.538;-5.646;2023-03-12T15:45:59;100439.78;;;19.99
69704;BMP280;56967;43.538;-5.646;2023-03-12T15:50:56;100413.00;;;19.85
69704;BMP280;56967;43.538;-5.646;2023-03-12T15:53:29;100389.00;;;19.85
69704;BMP280;56967;43.538;-5.646;2023-03-12T15:56:19;100395.78;;;19.96
69704;BMP280;56967;43.538;-5.646;2023-03-12T15:58:45;100406.63;;;20.05
69704;BMP280;56967;43.538;-5.646;2023-03-12T16:01:13;100435.66;;;19.88
69704;BMP280;56967;43.538;-5.646;2023-03-12T16:03:40;100416.34;;;20.19